Main page
METAR-TAF:

METAR-TAF

Airports :

Fairfield Municipal Airport

Fairfield, Iowa, United States

latitude: 41-03N, longitude: 091-59W, elevation: 800 ft

Current weather observation

The report was made 18 minutes ago, at 12:15 UTC
Wind 5 mph from the South
Temperature 59°F
Humidity 67%
Pressure 29.91 in. Hg
Visibility: 10 miles
Clear sky

METAR: KFFL 231215Z AUTO 18004KT 10SM CLR 15/09 A2991 RMK A01

Time: 07:33 (12:33 UTC)


TAF: missing

Weather observations and forecasts of more than 4000 airports (METAR and TAF reports).

The available stations are represented by yellow and red dots on the map.

Hover mouse over dot to see the name of the station.

Then click to see weather observations and forecasts.

To change the map : click on the green buttons with a black cross to zoom in, on the green button with a dash to zoom out, or on the green arrows for adjacent maps.


METAR-TAF: